createdAt,value
2022-11-27T00:01:45.287Z,90.11
2022-11-27T00:04:15.206Z,90.23
2022-11-27T00:06:45.120Z,90.20
2022-11-27T00:09:17.562Z,90.13
2022-11-27T00:11:49.795Z,89.97
2022-11-27T00:14:20.366Z,89.86
2022-11-27T00:16:50.031Z,90.00
2022-11-27T00:19:19.600Z,89.91
2022-11-27T00:21:49.402Z,90.01
2022-11-27T00:24:20.256Z,89.68
2022-11-27T00:26:52.446Z,89.70
2022-11-27T00:29:22.059Z,89.61
2022-11-27T00:31:51.602Z,89.64
2022-11-27T00:34:21.152Z,89.56
2022-11-27T00:36:50.903Z,89.58
2022-11-27T00:39:20.926Z,89.46
2022-11-27T00:41:53.082Z,89.39
2022-11-27T00:44:22.769Z,89.32
2022-11-27T00:46:52.406Z,89.43
2022-11-27T00:49:22.095Z,89.32
2022-11-27T00:51:51.619Z,89.51
2022-11-27T00:54:22.914Z,89.19
2022-11-27T00:56:55.211Z,89.33
2022-11-27T00:59:24.810Z,89.15
2022-11-27T01:01:54.652Z,89.30
2022-11-27T01:04:24.251Z,89.09
2022-11-27T01:06:53.820Z,89.09
2022-11-27T01:09:23.389Z,89.05
2022-11-27T01:11:55.800Z,89.02
2022-11-27T01:14:25.375Z,89.03
2022-11-27T01:16:55.156Z,89.04
2022-11-27T01:19:24.782Z,88.94
2022-11-27T01:21:54.414Z,88.93
2022-11-27T01:24:24.004Z,88.89
2022-11-27T01:26:56.134Z,88.58
2022-11-27T01:29:25.747Z,88.69
2022-11-27T01:31:55.306Z,88.56
2022-11-27T01:34:25.120Z,88.69
2022-11-27T01:36:54.739Z,88.68
2022-11-27T01:39:24.863Z,88.86
2022-11-27T01:41:57.019Z,88.79
2022-11-27T01:44:49.870Z,88.62
2022-11-27T01:47:26.874Z,88.89
2022-11-27T01:49:58.308Z,88.81
2022-11-27T01:52:30.876Z,88.97
2022-11-27T01:55:02.682Z,88.99
2022-11-27T01:57:38.854Z,88.93
2022-11-27T02:00:13.052Z,89.13
2022-11-27T02:02:42.666Z,88.95
2022-11-27T02:05:14.384Z,89.08
2022-11-27T02:07:44.207Z,89.08
2022-11-27T02:10:14.562Z,88.97
2022-11-27T02:12:53.697Z,89.03
2022-11-27T02:15:28.244Z,89.06
2022-11-27T02:18:00.643Z,88.98
2022-11-27T02:20:39.495Z,88.86
2022-11-27T02:23:34.317Z,88.66
2022-11-27T02:26:14.911Z,88.66
2022-11-27T02:29:02.873Z,88.36
2022-11-27T02:31:40.706Z,88.25
2022-11-27T02:34:18.489Z,88.43
2022-11-27T02:36:53.398Z,88.55
2022-11-27T02:39:26.444Z,88.29
2022-11-27T02:42:00.626Z,88.46
2022-11-27T02:44:29.942Z,88.32
2022-11-27T02:47:02.320Z,88.26
2022-11-27T02:49:32.077Z,88.16
2022-11-27T02:52:03.094Z,88.43
2022-11-27T02:54:33.823Z,88.29
2022-11-27T02:57:05.754Z,88.25
2022-11-27T02:59:36.802Z,88.21
2022-11-27T03:02:17.107Z,88.36
2022-11-27T03:04:50.413Z,88.55
2022-11-27T03:07:25.513Z,88.64
2022-11-27T03:09:58.628Z,88.64
2022-11-27T03:12:28.186Z,88.79
2022-11-27T03:14:57.737Z,88.89
2022-11-27T03:17:39.364Z,88.78
2022-11-27T03:20:13.495Z,88.93
2022-11-27T03:22:43.075Z,89.01
2022-11-27T03:25:12.671Z,88.88
2022-11-27T03:27:44.896Z,88.74
2022-11-27T03:30:15.772Z,88.96
2022-11-27T03:32:47.980Z,89.05
2022-11-27T03:35:19.725Z,88.93
2022-11-27T03:37:49.284Z,89.10
2022-11-27T03:40:19.460Z,88.99
2022-11-27T03:42:57.718Z,89.15
2022-11-27T03:45:32.481Z,89.21
2022-11-27T03:48:12.558Z,89.21
2022-11-27T03:50:53.147Z,88.93
2022-11-27T03:53:27.766Z,89.08
2022-11-27T03:56:06.736Z,88.77
2022-11-27T03:58:41.367Z,88.76
2022-11-27T04:01:14.471Z,88.61
2022-11-27T04:03:46.710Z,88.73
2022-11-27T04:06:16.283Z,88.42
2022-11-27T04:08:46.045Z,88.19
2022-11-27T04:11:15.701Z,87.93
2022-11-27T04:13:45.443Z,87.83
2022-11-27T04:16:15.134Z,87.75
2022-11-27T04:18:47.514Z,87.73
2022-11-27T04:21:17.136Z,87.50
2022-11-27T04:23:47.201Z,87.58
2022-11-27T04:26:16.749Z,87.39
2022-11-27T04:28:46.297Z,87.41
2022-11-27T04:31:15.851Z,87.33
2022-11-27T04:33:48.024Z,86.69
2022-11-27T04:36:17.563Z,86.81
2022-11-27T04:38:47.123Z,86.47
2022-11-27T04:41:16.625Z,86.10
2022-11-27T04:43:46.163Z,85.95
2022-11-27T04:46:15.700Z,86.00
2022-11-27T04:48:47.849Z,85.72
2022-11-27T04:51:17.378Z,85.42
2022-11-27T04:53:46.938Z,85.43
2022-11-27T04:56:16.748Z,85.34
2022-11-27T04:58:46.298Z,85.07
2022-11-27T05:01:15.977Z,85.23
2022-11-27T05:03:49.813Z,85.12
2022-11-27T05:06:19.463Z,84.84
2022-11-27T05:08:49.004Z,84.98
2022-11-27T05:11:20.294Z,84.51
2022-11-27T05:14:09.979Z,84.67
2022-11-27T05:16:39.537Z,84.59
2022-11-27T05:19:11.825Z,84.67
2022-11-27T05:21:41.747Z,84.26
2022-11-27T05:24:11.863Z,84.25
2022-11-27T05:26:42.115Z,84.09
2022-11-27T05:29:12.742Z,84.14
2022-11-27T05:31:42.359Z,83.71
2022-11-27T05:34:14.876Z,83.68
2022-11-27T05:36:44.439Z,83.67
2022-11-27T05:39:14.343Z,83.80
2022-11-27T05:41:45.696Z,83.76
2022-11-27T05:44:16.638Z,83.55
2022-11-27T05:46:46.753Z,83.53
2022-11-27T05:49:19.611Z,83.37
2022-11-27T05:51:51.353Z,83.39
2022-11-27T05:54:21.801Z,83.25
2022-11-27T05:56:51.405Z,83.19
2022-11-27T05:59:21.422Z,83.39
2022-11-27T06:01:51.990Z,83.36
2022-11-27T06:04:24.421Z,83.17
2022-11-27T06:06:53.969Z,83.19
2022-11-27T06:09:23.747Z,83.15
2022-11-27T06:11:53.282Z,82.99
2022-11-27T06:14:22.950Z,82.91
2022-11-27T06:16:52.506Z,83.00
2022-11-27T06:19:25.033Z,83.03
2022-11-27T06:21:54.594Z,82.79
2022-11-27T06:24:24.511Z,82.81
2022-11-27T06:26:54.037Z,82.85
2022-11-27T06:29:23.623Z,82.93
2022-11-27T06:31:53.334Z,82.94
2022-11-27T06:34:25.618Z,82.98
2022-11-27T06:36:55.192Z,82.95
2022-11-27T06:39:24.797Z,82.70
2022-11-27T06:41:54.520Z,82.67
2022-11-27T06:44:24.073Z,82.93
2022-11-27T06:46:53.620Z,82.89
2022-11-27T06:49:26.011Z,82.81
2022-11-27T06:51:55.618Z,82.72
2022-11-27T06:54:25.320Z,82.83
2022-11-27T06:56:55.014Z,82.83
2022-11-27T06:59:24.637Z,82.86
2022-11-27T07:01:54.213Z,83.01
2022-11-27T07:04:26.406Z,83.20
2022-11-27T07:06:56.885Z,83.14
2022-11-27T07:09:26.431Z,83.01
2022-11-27T07:11:56.079Z,83.02
2022-11-27T07:14:25.687Z,83.21
2022-11-27T07:16:55.267Z,83.10
2022-11-27T07:19:27.568Z,83.27
2022-11-27T07:21:57.082Z,83.20
2022-11-27T07:24:26.721Z,83.29
2022-11-27T07:26:56.217Z,83.07
2022-11-27T07:29:26.003Z,82.85
2022-11-27T07:31:55.831Z,83.04
2022-11-27T07:34:28.286Z,82.66
2022-11-27T07:36:57.815Z,82.61
2022-11-27T07:39:46.653Z,82.58
2022-11-27T07:42:37.497Z,82.57
2022-11-27T07:45:07.184Z,82.47
2022-11-27T07:47:36.758Z,82.30
2022-11-27T07:50:10.959Z,82.03
2022-11-27T07:52:42.181Z,82.14
2022-11-27T07:55:12.379Z,81.83
2022-11-27T07:57:42.467Z,81.63
2022-11-27T08:00:13.599Z,81.67
2022-11-27T08:02:43.120Z,81.48
2022-11-27T08:05:15.382Z,81.43
2022-11-27T08:07:45.034Z,81.20
2022-11-27T08:10:14.865Z,81.14
2022-11-27T08:12:44.400Z,80.87
2022-11-27T08:15:14.542Z,80.58
2022-11-27T08:17:44.075Z,80.23
2022-11-27T08:20:16.419Z,79.93
2022-11-27T08:22:45.951Z,79.53
2022-11-27T08:25:15.532Z,79.56
2022-11-27T08:27:46.298Z,79.31
2022-11-27T08:30:16.727Z,79.07
2022-11-27T08:32:46.697Z,78.82
2022-11-27T08:35:19.030Z,78.58
2022-11-27T08:37:48.759Z,78.14
2022-11-27T08:40:18.505Z,77.99
2022-11-27T08:42:48.127Z,77.60
2022-11-27T08:45:18.428Z,77.21
2022-11-27T08:47:47.955Z,77.23
2022-11-27T08:50:20.223Z,77.21
2022-11-27T08:52:49.761Z,76.73
2022-11-27T08:55:19.597Z,76.49
2022-11-27T08:57:49.120Z,76.68
2022-11-27T09:00:24.933Z,76.32
2022-11-27T09:02:57.184Z,76.29
2022-11-27T09:05:29.415Z,76.01
2022-11-27T09:07:59.757Z,76.02
2022-11-27T09:10:29.430Z,76.06
2022-11-27T09:12:59.649Z,75.97
2022-11-27T09:15:29.245Z,75.77
2022-11-27T09:17:58.777Z,75.78
2022-11-27T09:20:31.043Z,75.58
2022-11-27T09:23:02.471Z,75.08
2022-11-27T09:25:32.071Z,75.14
2022-11-27T09:28:01.829Z,75.03
2022-11-27T09:30:31.428Z,75.07
2022-11-27T09:33:02.163Z,74.85
2022-11-27T09:35:34.518Z,74.83
2022-11-27T09:38:04.182Z,74.38
2022-11-27T09:40:33.952Z,74.26
2022-11-27T09:43:09.791Z,74.10
2022-11-27T09:45:46.688Z,74.10
2022-11-27T09:48:21.043Z,73.87
2022-11-27T09:50:55.090Z,73.56
2022-11-27T09:53:32.018Z,73.15
2022-11-27T09:56:03.441Z,72.52
2022-11-27T09:58:39.447Z,72.25
2022-11-27T10:01:16.664Z,72.50
2022-11-27T10:03:47.674Z,72.52
2022-11-27T10:06:26.228Z,72.37
2022-11-27T10:09:08.021Z,72.01
2022-11-27T10:11:42.720Z,71.70
2022-11-27T10:14:25.322Z,71.61
2022-11-27T10:16:58.962Z,71.36
2022-11-27T10:19:34.374Z,71.24
2022-11-27T10:22:17.937Z,70.93
2022-11-27T10:24:59.580Z,70.59
2022-11-27T10:27:34.483Z,70.57
2022-11-27T10:30:04.433Z,70.10
2022-11-27T10:35:28.369Z,70.07
2022-11-27T10:38:06.830Z,69.73
2022-11-27T10:40:40.480Z,69.64
2022-11-27T10:43:13.944Z,69.48
2022-11-27T10:45:47.054Z,69.16
2022-11-27T10:48:17.162Z,68.76
2022-11-27T10:50:47.792Z,68.54
2022-11-27T10:53:28.154Z,68.58
2022-11-27T10:56:31.208Z,68.38
2022-11-27T10:59:04.480Z,68.22
2022-11-27T11:01:45.045Z,67.91
2022-11-27T11:04:36.947Z,67.98
2022-11-27T11:07:06.112Z,68.11
2022-11-27T11:09:38.865Z,68.13
2022-11-27T11:12:12.190Z,68.20
2022-11-27T11:14:42.170Z,68.20
2022-11-27T11:17:18.459Z,68.13
2022-11-27T11:19:48.623Z,67.88
2022-11-27T11:22:19.394Z,67.94
2022-11-27T11:24:53.274Z,67.94
2022-11-27T11:27:25.837Z,67.92
2022-11-27T11:29:56.746Z,67.69
2022-11-27T11:32:28.514Z,67.67
2022-11-27T11:35:01.748Z,67.67
2022-11-27T11:37:32.996Z,67.32
2022-11-27T11:40:14.797Z,66.88
2022-11-27T11:42:54.387Z,66.78
2022-11-27T11:45:28.620Z,66.70
2022-11-27T11:48:02.777Z,66.31
2022-11-27T11:50:36.562Z,66.22
2022-11-27T11:53:11.095Z,66.20
2022-11-27T11:55:48.282Z,66.32
2022-11-27T11:58:38.752Z,66.22
2022-11-27T12:01:29.102Z,66.14
2022-11-27T12:04:10.486Z,66.04
2022-11-27T12:06:51.321Z,65.84
2022-11-27T12:09:42.093Z,65.96
2022-11-27T12:12:24.311Z,66.23
2022-11-27T12:14:57.956Z,66.46
2022-11-27T12:17:41.281Z,66.20
2022-11-27T12:20:21.219Z,65.96
2022-11-27T12:23:21.932Z,65.32
2022-11-27T12:25:57.158Z,65.16
2022-11-27T12:28:40.727Z,64.88
2022-11-27T12:31:16.240Z,64.37
2022-11-27T12:34:02.798Z,64.04
2022-11-27T12:36:44.726Z,63.76
2022-11-27T12:39:19.143Z,63.57
2022-11-27T12:42:04.539Z,63.46
2022-11-27T12:44:50.263Z,63.38
2022-11-27T12:47:25.725Z,63.40
2022-11-27T12:50:00.618Z,63.48
2022-11-27T12:52:34.501Z,63.25
2022-11-27T12:55:06.589Z,62.96
2022-11-27T12:57:40.035Z,63.04
2022-11-27T13:00:21.444Z,62.80
2022-11-27T13:02:59.957Z,62.96
2022-11-27T13:05:32.747Z,63.16
2022-11-27T13:08:05.367Z,63.19
2022-11-27T13:10:38.604Z,62.96
2022-11-27T13:13:11.177Z,63.14
2022-11-27T13:15:46.725Z,62.88
2022-11-27T13:18:21.922Z,62.91
2022-11-27T13:20:52.944Z,62.81
2022-11-27T13:23:23.410Z,62.62
2022-11-27T13:25:57.094Z,62.65
2022-11-27T13:28:30.072Z,62.61
2022-11-27T13:31:03.048Z,62.44
2022-11-27T13:33:39.082Z,62.38
2022-11-27T13:36:10.630Z,62.46
2022-11-27T13:38:42.076Z,62.46
2022-11-27T13:41:11.740Z,62.35
2022-11-27T13:43:45.318Z,62.38
2022-11-27T13:46:23.163Z,62.31
2022-11-27T13:48:55.275Z,62.09
2022-11-27T13:51:28.099Z,62.03
2022-11-27T13:54:09.903Z,62.17
2022-11-27T13:56:39.554Z,62.09
2022-11-27T13:59:17.231Z,61.96
2022-11-27T14:02:00.787Z,61.90
2022-11-27T14:04:31.492Z,62.09
2022-11-27T14:07:06.314Z,62.10
2022-11-27T14:09:39.024Z,62.17
2022-11-27T14:12:21.228Z,62.02
2022-11-27T14:15:03.747Z,61.82
2022-11-27T14:17:41.276Z,61.89
2022-11-27T14:20:28.053Z,61.87
2022-11-27T14:23:14.244Z,62.06
2022-11-27T14:25:44.071Z,61.93
2022-11-27T14:28:18.066Z,61.70
2022-11-27T14:30:50.177Z,61.57
2022-11-27T14:33:23.790Z,61.77
2022-11-27T14:35:54.231Z,62.04
2022-11-27T14:38:24.703Z,62.41
2022-11-27T14:40:56.327Z,63.19
2022-11-27T14:43:27.231Z,63.90
2022-11-27T14:45:59.055Z,64.28
2022-11-27T14:48:34.257Z,64.63
2022-11-27T14:51:04.211Z,64.80
2022-11-27T14:53:34.369Z,64.91
2022-11-27T14:56:03.917Z,64.68
2022-11-27T14:58:33.667Z,64.65
2022-11-27T15:01:05.481Z,64.76
2022-11-27T15:03:37.805Z,64.82
2022-11-27T15:06:10.008Z,64.55
2022-11-27T15:08:40.819Z,64.75
2022-11-27T15:11:10.440Z,64.69
2022-11-27T15:13:40.680Z,64.69
2022-11-27T15:16:16.967Z,64.59
2022-11-27T15:18:51.551Z,64.77
2022-11-27T15:21:25.101Z,64.78
2022-11-27T15:23:55.800Z,65.08
2022-11-27T15:26:36.473Z,65.16
2022-11-27T15:29:06.528Z,65.46
2022-11-27T15:31:38.022Z,65.66
2022-11-27T15:34:24.529Z,66.16
2022-11-27T15:36:59.766Z,66.77
2022-11-27T15:39:32.958Z,67.14
2022-11-27T15:42:04.149Z,67.29
2022-11-27T15:44:35.496Z,67.74
2022-11-27T15:47:06.013Z,67.92
2022-11-27T15:49:38.158Z,68.20
2022-11-27T15:52:07.776Z,68.43
2022-11-27T15:54:37.332Z,68.53
2022-11-27T15:57:06.882Z,69.29
2022-11-27T15:59:36.454Z,69.65
2022-11-27T16:02:06.416Z,70.02
2022-11-27T16:04:38.977Z,70.38
2022-11-27T16:07:09.658Z,70.58
2022-11-27T16:09:39.803Z,70.80
2022-11-27T16:12:09.593Z,70.86
2022-11-27T16:14:40.685Z,70.92
2022-11-27T16:17:10.322Z,70.87
2022-11-27T16:19:42.519Z,70.71
2022-11-27T16:22:12.851Z,70.63
2022-11-27T16:24:44.092Z,70.19
2022-11-27T16:27:13.787Z,70.03
2022-11-27T16:29:44.217Z,69.76
2022-11-27T16:32:14.047Z,70.04
2022-11-27T16:34:46.356Z,70.21
2022-11-27T16:37:18.599Z,70.96
2022-11-27T16:39:48.337Z,71.05
2022-11-27T16:42:17.927Z,71.12
2022-11-27T16:44:48.078Z,71.30
2022-11-27T16:47:17.852Z,71.31
2022-11-27T16:49:51.223Z,71.37
2022-11-27T16:52:20.887Z,70.99
2022-11-27T16:54:50.470Z,71.14
2022-11-27T16:57:20.406Z,70.88
2022-11-27T16:59:50.824Z,70.79
2022-11-27T17:02:21.878Z,70.90
2022-11-27T17:04:54.051Z,70.58
2022-11-27T17:07:23.747Z,70.56
2022-11-27T17:09:53.315Z,70.40
2022-11-27T17:12:22.845Z,70.52
2022-11-27T17:14:52.458Z,70.49
2022-11-27T17:17:21.999Z,70.27
2022-11-27T17:20:00.186Z,70.09
2022-11-27T17:22:30.830Z,69.72
2022-11-27T17:25:00.742Z,69.57
2022-11-27T17:27:30.290Z,69.67
2022-11-27T17:30:00.004Z,69.58
2022-11-27T17:32:30.101Z,69.37
2022-11-27T17:35:02.674Z,69.03
2022-11-27T17:37:32.543Z,68.82
2022-11-27T17:40:02.142Z,68.66
2022-11-27T17:42:31.710Z,68.76
2022-11-27T17:45:01.727Z,68.55
2022-11-27T17:47:31.264Z,68.40
2022-11-27T17:50:03.560Z,67.99
2022-11-27T17:52:33.510Z,68.02
2022-11-27T17:55:03.173Z,67.88
2022-11-27T17:57:33.354Z,67.56
2022-11-27T18:00:03.649Z,67.72
2022-11-27T18:02:43.636Z,67.83
2022-11-27T18:05:15.860Z,67.91
2022-11-27T18:07:46.190Z,67.93
2022-11-27T18:10:15.961Z,68.36
2022-11-27T18:12:45.555Z,68.36
2022-11-27T18:15:15.583Z,68.64
2022-11-27T18:17:45.601Z,68.44
2022-11-27T18:20:17.913Z,68.51
2022-11-27T18:22:47.492Z,68.39
2022-11-27T18:25:17.067Z,68.86
2022-11-27T18:27:46.637Z,69.80
2022-11-27T18:30:17.256Z,70.55
2022-11-27T18:32:46.848Z,71.21
2022-11-27T18:35:19.063Z,71.90
2022-11-27T18:37:48.610Z,72.81
2022-11-27T18:40:18.394Z,73.83
2022-11-27T18:42:47.960Z,74.49
2022-11-27T18:45:32.789Z,75.26
2022-11-27T18:48:02.835Z,75.89
2022-11-27T18:50:35.026Z,76.06
2022-11-27T18:53:05.222Z,76.43
2022-11-27T18:55:36.503Z,76.67
2022-11-27T18:58:06.112Z,76.50
2022-11-27T19:00:37.338Z,76.53
2022-11-27T19:03:07.006Z,76.44
2022-11-27T19:05:40.903Z,76.60
2022-11-27T19:08:10.468Z,76.82
2022-11-27T19:10:40.130Z,76.94
2022-11-27T19:13:10.026Z,76.91
2022-11-27T19:15:41.756Z,76.54
2022-11-27T19:18:11.386Z,76.45
2022-11-27T19:20:43.660Z,76.32
2022-11-27T19:23:14.624Z,76.14
2022-11-27T19:25:45.337Z,75.72
2022-11-27T19:28:15.644Z,75.42
2022-11-27T19:30:46.475Z,75.39
2022-11-27T19:33:16.086Z,75.14
2022-11-27T19:35:48.257Z,75.09
2022-11-27T19:38:17.930Z,74.83
2022-11-27T19:40:49.460Z,74.75
2022-11-27T19:43:19.179Z,74.68
2022-11-27T19:45:50.031Z,74.39
2022-11-27T19:48:23.141Z,74.34
2022-11-27T19:50:56.285Z,74.26
2022-11-27T19:53:26.689Z,74.02
2022-11-27T19:55:57.115Z,73.74
2022-11-27T19:58:26.853Z,73.62
2022-11-27T20:00:56.698Z,73.57
2022-11-27T20:03:26.430Z,73.31
2022-11-27T20:06:07.250Z,73.09
2022-11-27T20:08:37.643Z,73.19
2022-11-27T20:11:08.655Z,73.01
2022-11-27T20:13:38.283Z,72.88
2022-11-27T20:16:09.894Z,72.82
2022-11-27T20:18:40.594Z,72.72
2022-11-27T20:21:14.750Z,72.69
2022-11-27T20:23:45.360Z,72.42
2022-11-27T20:26:17.911Z,72.50
2022-11-27T20:28:48.054Z,72.42
2022-11-27T20:31:22.220Z,72.46
2022-11-27T20:33:51.950Z,72.65
2022-11-27T20:36:25.243Z,72.55
2022-11-27T20:38:55.605Z,72.84
2022-11-27T20:41:26.294Z,72.65
2022-11-27T20:43:58.234Z,72.69
2022-11-27T20:46:28.825Z,72.56
2022-11-27T20:48:59.215Z,72.84
2022-11-27T20:51:34.961Z,72.68
2022-11-27T20:54:11.063Z,72.77
2022-11-27T20:56:43.046Z,72.83
2022-11-27T20:59:12.938Z,72.62
2022-11-27T21:01:43.596Z,72.49
2022-11-27T21:04:21.557Z,72.35
2022-11-27T21:06:54.191Z,72.40
2022-11-27T21:09:24.922Z,72.53
2022-11-27T21:11:54.877Z,72.51
2022-11-27T21:14:25.565Z,72.51
2022-11-27T21:16:58.034Z,72.65
2022-11-27T21:19:32.329Z,72.68
2022-11-27T21:22:04.754Z,73.17
2022-11-27T21:24:34.717Z,73.52
2022-11-27T21:27:05.282Z,73.73
2022-11-27T21:29:35.366Z,74.18
2022-11-27T21:32:06.156Z,74.53
2022-11-27T21:34:35.937Z,74.99
2022-11-27T21:37:08.195Z,75.09
2022-11-27T21:39:37.958Z,75.53
2022-11-27T21:42:07.675Z,75.63
2022-11-27T21:44:41.243Z,75.72
2022-11-27T21:47:12.275Z,76.01
2022-11-27T21:49:42.494Z,76.11
2022-11-27T21:52:15.034Z,76.30
2022-11-27T21:54:44.934Z,76.06
2022-11-27T21:57:17.383Z,76.12
2022-11-27T21:59:46.953Z,76.48
2022-11-27T22:02:16.578Z,76.99
2022-11-27T22:04:47.123Z,77.24
2022-11-27T22:07:19.299Z,77.88
2022-11-27T22:09:48.842Z,77.98
2022-11-27T22:12:18.386Z,77.93
2022-11-27T22:14:48.139Z,78.06
2022-11-27T22:17:19.077Z,77.90
2022-11-27T22:19:48.925Z,77.77
2022-11-27T22:22:21.118Z,77.54
2022-11-27T22:24:50.733Z,77.59
2022-11-27T22:27:20.290Z,77.40
2022-11-27T22:29:50.868Z,77.81
2022-11-27T22:32:20.430Z,77.94
2022-11-27T22:34:50.069Z,78.19
2022-11-27T22:37:22.214Z,78.48
2022-11-27T22:39:51.805Z,79.16
2022-11-27T22:42:21.314Z,79.83
2022-11-27T22:44:51.183Z,80.34
2022-11-27T22:47:20.835Z,81.08
2022-11-27T22:49:50.741Z,81.49
2022-11-27T22:52:22.878Z,82.00
2022-11-27T22:54:52.438Z,82.80
2022-11-27T22:57:22.013Z,83.35
2022-11-27T22:59:51.602Z,84.06
2022-11-27T23:02:21.644Z,84.65
2022-11-27T23:04:51.389Z,85.28
2022-11-27T23:07:25.465Z,85.89
2022-11-27T23:09:55.395Z,86.75
2022-11-27T23:12:25.010Z,87.29
2022-11-27T23:14:54.728Z,87.78
2022-11-27T23:17:24.403Z,88.48
2022-11-27T23:19:53.977Z,88.91
2022-11-27T23:22:26.158Z,89.21
2022-11-27T23:24:56.213Z,89.53
2022-11-27T23:27:25.840Z,89.76
2022-11-27T23:29:55.427Z,90.23
2022-11-27T23:32:25.006Z,90.67
2022-11-27T23:34:54.663Z,90.84
2022-11-27T23:37:26.806Z,91.26
2022-11-27T23:39:56.384Z,91.23
2022-11-27T23:42:25.986Z,91.91
2022-11-27T23:44:55.554Z,92.17
2022-11-27T23:47:25.114Z,92.54
2022-11-27T23:49:54.675Z,92.80
2022-11-27T23:52:26.804Z,92.92
2022-11-27T23:54:56.380Z,93.28
2022-11-27T23:57:25.967Z,93.53
2022-11-27T23:59:55.569Z,93.80
